sensor_id;sensor_type;location;lat;lon;timestamp;temperature;humidity
1578;DHT22;57623;53.608;10.004;2024-03-22T00:00:37;8.90;99.90
1578;DHT22;57623;53.608;10.004;2024-03-22T00:03:04;8.90;99.90
1578;DHT22;57623;53.608;10.004;2024-03-22T00:05:31;8.90;99.90
1578;DHT22;57623;53.608;10.004;2024-03-22T00:07:57;8.90;99.90
1578;DHT22;57623;53.608;10.004;2024-03-22T00:10:24;8.90;99.90
1578;DHT22;57623;53.608;10.004;2024-03-22T00:12:50;8.90;99.90
1578;DHT22;57623;53.608;10.004;2024-03-22T00:15:17;8.90;99.90
1578;DHT22;57623;53.608;10.004;2024-03-22T00:17:45;8.90;99.90
1578;DHT22;57623;53.608;10.004;2024-03-22T00:20:12;8.90;99.90
1578;DHT22;57623;53.608;10.004;2024-03-22T00:22:38;8.90;99.90
1578;DHT22;57623;53.608;10.004;2024-03-22T00:25:06;8.90;99.90
1578;DHT22;57623;53.608;10.004;2024-03-22T00:27:32;8.90;99.90
1578;DHT22;57623;53.608;10.004;2024-03-22T00:29:59;8.90;99.90
1578;DHT22;57623;53.608;10.004;2024-03-22T00:32:25;8.90;99.90
1578;DHT22;57623;53.608;10.004;2024-03-22T00:34:53;8.90;99.90
1578;DHT22;57623;53.608;10.004;2024-03-22T00:37:19;8.90;99.90
1578;DHT22;57623;53.608;10.004;2024-03-22T00:39:46;8.90;99.90
1578;DHT22;57623;53.608;10.004;2024-03-22T00:42:12;8.90;99.90
1578;DHT22;57623;53.608;10.004;2024-03-22T00:44:40;8.90;99.90
1578;DHT22;57623;53.608;10.004;2024-03-22T00:47:06;9.00;99.90
1578;DHT22;57623;53.608;10.004;2024-03-22T00:49:33;9.00;99.90
1578;DHT22;57623;53.608;10.004;2024-03-22T00:52:01;9.00;99.90
1578;DHT22;57623;53.608;10.004;2024-03-22T00:54:28;9.00;99.90
1578;DHT22;57623;53.608;10.004;2024-03-22T00:56:54;9.00;99.90
1578;DHT22;57623;53.608;10.004;2024-03-22T00:59:21;9.00;99.90
1578;DHT22;57623;53.608;10.004;2024-03-22T01:01:48;9.00;99.90
1578;DHT22;57623;53.608;10.004;2024-03-22T01:04:15;9.00;99.90
1578;DHT22;57623;53.608;10.004;2024-03-22T01:06:41;9.00;99.90
1578;DHT22;57623;53.608;10.004;2024-03-22T01:09:09;9.00;99.90
1578;DHT22;57623;53.608;10.004;2024-03-22T01:11:35;9.00;99.90
1578;DHT22;57623;53.608;10.004;2024-03-22T01:14:02;9.00;99.90
1578;DHT22;57623;53.608;10.004;2024-03-22T01:16:28;9.00;99.90
1578;DHT22;57623;53.608;10.004;2024-03-22T01:18:56;9.00;99.90
1578;DHT22;57623;53.608;10.004;2024-03-22T01:21:22;9.00;99.90
1578;DHT22;57623;53.608;10.004;2024-03-22T01:23:51;9.00;99.90
1578;DHT22;57623;53.608;10.004;2024-03-22T01:26:18;9.00;99.90
1578;DHT22;57623;53.608;10.004;2024-03-22T01:28:46;9.00;99.90
1578;DHT22;57623;53.608;10.004;2024-03-22T01:31:12;9.00;99.90
1578;DHT22;57623;53.608;10.004;2024-03-22T01:33:39;9.00;99.90
1578;DHT22;57623;53.608;10.004;2024-03-22T01:36:05;9.00;99.90
1578;DHT22;57623;53.608;10.004;2024-03-22T01:38:32;9.00;99.90
1578;DHT22;57623;53.608;10.004;2024-03-22T01:40:58;9.00;99.90
1578;DHT22;57623;53.608;10.004;2024-03-22T01:43:27;9.00;99.90
1578;DHT22;57623;53.608;10.004;2024-03-22T01:45:53;9.00;99.90
1578;DHT22;57623;53.608;10.004;2024-03-22T01:48:20;9.00;99.90
1578;DHT22;57623;53.608;10.004;2024-03-22T01:50:46;9.00;99.90
1578;DHT22;57623;53.608;10.004;2024-03-22T01:53:14;9.00;99.90
1578;DHT22;57623;53.608;10.004;2024-03-22T01:55:40;9.00;99.90
1578;DHT22;57623;53.608;10.004;2024-03-22T01:58:07;9.00;99.90
1578;DHT22;57623;53.608;10.004;2024-03-22T02:00:35;9.00;99.90
1578;DHT22;57623;53.608;10.004;2024-03-22T02:03:03;9.00;99.90
1578;DHT22;57623;53.608;10.004;2024-03-22T02:05:29;9.00;99.90
1578;DHT22;57623;53.608;10.004;2024-03-22T02:07:56;9.00;99.90
1578;DHT22;57623;53.608;10.004;2024-03-22T02:10:22;9.10;99.90
1578;DHT22;57623;53.608;10.004;2024-03-22T02:12:49;9.10;99.90
1578;DHT22;57623;53.608;10.004;2024-03-22T02:15:16;9.10;99.90
1578;DHT22;57623;53.608;10.004;2024-03-22T02:17:44;9.10;99.90
1578;DHT22;57623;53.608;10.004;2024-03-22T02:20:11;9.10;99.90
1578;DHT22;57623;53.608;10.004;2024-03-22T02:22:38;9.10;99.90
1578;DHT22;57623;53.608;10.004;2024-03-22T02:25:07;9.20;99.90
1578;DHT22;57623;53.608;10.004;2024-03-22T02:27:33;9.20;99.90
1578;DHT22;57623;53.608;10.004;2024-03-22T02:30:01;9.20;99.90
1578;DHT22;57623;53.608;10.004;2024-03-22T02:32:28;9.20;99.90
1578;DHT22;57623;53.608;10.004;2024-03-22T02:34:55;9.20;99.90
1578;DHT22;57623;53.608;10.004;2024-03-22T02:37:21;9.20;99.90
1578;DHT22;57623;53.608;10.004;2024-03-22T02:39:48;9.20;99.90
1578;DHT22;57623;53.608;10.004;2024-03-22T02:42:15;9.20;99.90
1578;DHT22;57623;53.608;10.004;2024-03-22T02:44:43;9.20;99.90
1578;DHT22;57623;53.608;10.004;2024-03-22T02:47:09;9.20;99.90
1578;DHT22;57623;53.608;10.004;2024-03-22T02:49:38;9.20;99.90
1578;DHT22;57623;53.608;10.004;2024-03-22T02:52:04;9.20;99.90
1578;DHT22;57623;53.608;10.004;2024-03-22T02:54:31;9.20;99.90
1578;DHT22;57623;53.608;10.004;2024-03-22T02:56:57;9.30;99.90
1578;DHT22;57623;53.608;10.004;2024-03-22T02:59:27;9.30;99.90
1578;DHT22;57623;53.608;10.004;2024-03-22T03:01:53;9.30;99.90
1578;DHT22;57623;53.608;10.004;2024-03-22T03:04:20;9.30;99.90
1578;DHT22;57623;53.608;10.004;2024-03-22T03:06:46;9.30;99.90
1578;DHT22;57623;53.608;10.004;2024-03-22T03:09:13;9.30;99.90
1578;DHT22;57623;53.608;10.004;2024-03-22T03:11:40;9.30;99.90
1578;DHT22;57623;53.608;10.004;2024-03-22T03:14:07;9.30;99.90
1578;DHT22;57623;53.608;10.004;2024-03-22T03:16:34;9.30;99.90
1578;DHT22;57623;53.608;10.004;2024-03-22T03:19:01;9.40;99.90
1578;DHT22;57623;53.608;10.004;2024-03-22T03:21:27;9.40;99.90
1578;DHT22;57623;53.608;10.004;2024-03-22T03:23:54;9.40;99.90
1578;DHT22;57623;53.608;10.004;2024-03-22T03:26:20;9.40;99.90
1578;DHT22;57623;53.608;10.004;2024-03-22T03:28:47;9.40;99.90
1578;DHT22;57623;53.608;10.004;2024-03-22T03:31:13;9.40;99.90
1578;DHT22;57623;53.608;10.004;2024-03-22T03:33:42;9.40;99.90
1578;DHT22;57623;53.608;10.004;2024-03-22T03:36:08;9.40;99.90
1578;DHT22;57623;53.608;10.004;2024-03-22T03:38:35;9.40;99.90
1578;DHT22;57623;53.608;10.004;2024-03-22T03:41:03;9.40;99.90
1578;DHT22;57623;53.608;10.004;2024-03-22T03:43:30;9.50;99.90
1578;DHT22;57623;53.608;10.004;2024-03-22T03:45:56;9.50;99.90
1578;DHT22;57623;53.608;10.004;2024-03-22T03:48:23;9.50;99.90
1578;DHT22;57623;53.608;10.004;2024-03-22T03:50:54;9.50;99.90
1578;DHT22;57623;53.608;10.004;2024-03-22T03:53:24;9.50;99.90
1578;DHT22;57623;53.608;10.004;2024-03-22T03:55:50;9.50;99.90
1578;DHT22;57623;53.608;10.004;2024-03-22T03:58:18;9.50;99.90
1578;DHT22;57623;53.608;10.004;2024-03-22T04:00:44;9.50;99.90
1578;DHT22;57623;53.608;10.004;2024-03-22T04:03:11;9.50;99.90
1578;DHT22;57623;53.608;10.004;2024-03-22T04:05:37;9.60;99.90
1578;DHT22;57623;53.608;10.004;2024-03-22T04:08:06;9.50;99.90
1578;DHT22;57623;53.608;10.004;2024-03-22T04:10:32;9.50;99.90
1578;DHT22;57623;53.608;10.004;2024-03-22T04:12:59;9.60;99.90
1578;DHT22;57623;53.608;10.004;2024-03-22T04:15:25;9.50;99.90
1578;DHT22;57623;53.608;10.004;2024-03-22T04:17:52;9.60;99.90
1578;DHT22;57623;53.608;10.004;2024-03-22T04:20:18;9.50;99.90
1578;DHT22;57623;53.608;10.004;2024-03-22T04:22:45;9.50;99.90
1578;DHT22;57623;53.608;10.004;2024-03-22T04:25:13;9.50;99.90
1578;DHT22;57623;53.608;10.004;2024-03-22T04:27:40;9.50;99.90
1578;DHT22;57623;53.608;10.004;2024-03-22T04:30:07;9.50;99.90
1578;DHT22;57623;53.608;10.004;2024-03-22T04:32:36;9.50;99.90
1578;DHT22;57623;53.608;10.004;2024-03-22T04:35:02;9.50;99.90
1578;DHT22;57623;53.608;10.004;2024-03-22T04:37:30;9.60;99.90
1578;DHT22;57623;53.608;10.004;2024-03-22T04:39:57;9.60;99.90
1578;DHT22;57623;53.608;10.004;2024-03-22T04:42:25;9.60;99.90
1578;DHT22;57623;53.608;10.004;2024-03-22T04:44:52;9.60;99.90
1578;DHT22;57623;53.608;10.004;2024-03-22T04:47:20;9.60;99.90
1578;DHT22;57623;53.608;10.004;2024-03-22T04:49:46;9.60;99.90
1578;DHT22;57623;53.608;10.004;2024-03-22T04:52:13;9.60;99.90
1578;DHT22;57623;53.608;10.004;2024-03-22T04:54:39;9.60;99.90
1578;DHT22;57623;53.608;10.004;2024-03-22T04:57:06;9.70;99.90
1578;DHT22;57623;53.608;10.004;2024-03-22T04:59:34;9.70;99.90
1578;DHT22;57623;53.608;10.004;2024-03-22T05:02:01;9.70;99.90
1578;DHT22;57623;53.608;10.004;2024-03-22T05:04:28;9.70;99.90
1578;DHT22;57623;53.608;10.004;2024-03-22T05:06:54;9.70;99.90
1578;DHT22;57623;53.608;10.004;2024-03-22T05:09:21;9.70;99.90
1578;DHT22;57623;53.608;10.004;2024-03-22T05:11:47;9.70;99.90
1578;DHT22;57623;53.608;10.004;2024-03-22T05:14:17;9.70;99.90
1578;DHT22;57623;53.608;10.004;2024-03-22T05:16:44;9.70;99.90
1578;DHT22;57623;53.608;10.004;2024-03-22T05:19:11;9.80;99.90
1578;DHT22;57623;53.608;10.004;2024-03-22T05:21:38;9.80;99.90
1578;DHT22;57623;53.608;10.004;2024-03-22T05:24:05;9.70;99.90
1578;DHT22;57623;53.608;10.004;2024-03-22T05:26:31;9.80;99.90
1578;DHT22;57623;53.608;10.004;2024-03-22T05:29:02;9.80;99.90
1578;DHT22;57623;53.608;10.004;2024-03-22T05:31:28;9.80;99.90
1578;DHT22;57623;53.608;10.004;2024-03-22T05:33:56;9.80;99.90
1578;DHT22;57623;53.608;10.004;2024-03-22T05:36:23;9.80;99.90
1578;DHT22;57623;53.608;10.004;2024-03-22T05:38:50;9.80;99.90
1578;DHT22;57623;53.608;10.004;2024-03-22T05:41:16;9.80;99.90
1578;DHT22;57623;53.608;10.004;2024-03-22T05:43:43;9.80;99.90
1578;DHT22;57623;53.608;10.004;2024-03-22T05:46:09;9.80;99.90
1578;DHT22;57623;53.608;10.004;2024-03-22T05:48:36;9.80;99.90
1578;DHT22;57623;53.608;10.004;2024-03-22T05:51:03;9.80;99.90
1578;DHT22;57623;53.608;10.004;2024-03-22T05:53:31;9.90;99.90
1578;DHT22;57623;53.608;10.004;2024-03-22T05:55:57;9.90;99.90
1578;DHT22;57623;53.608;10.004;2024-03-22T05:58:24;9.90;99.90
1578;DHT22;57623;53.608;10.004;2024-03-22T06:00:50;10.00;99.90
1578;DHT22;57623;53.608;10.004;2024-03-22T06:03:19;10.00;99.90
1578;DHT22;57623;53.608;10.004;2024-03-22T06:05:45;10.00;99.90
1578;DHT22;57623;53.608;10.004;2024-03-22T06:08:14;10.00;99.90
1578;DHT22;57623;53.608;10.004;2024-03-22T06:10:44;10.00;99.90
1578;DHT22;57623;53.608;10.004;2024-03-22T06:13:11;10.00;99.90
1578;DHT22;57623;53.608;10.004;2024-03-22T06:15:37;10.00;99.90
1578;DHT22;57623;53.608;10.004;2024-03-22T06:18:06;10.00;99.90
1578;DHT22;57623;53.608;10.004;2024-03-22T06:20:32;10.00;99.90
1578;DHT22;57623;53.608;10.004;2024-03-22T06:22:59;10.00;99.90
1578;DHT22;57623;53.608;10.004;2024-03-22T06:25:26;10.10;99.90
1578;DHT22;57623;53.608;10.004;2024-03-22T06:27:53;10.10;99.90
1578;DHT22;57623;53.608;10.004;2024-03-22T06:30:19;10.10;99.90
1578;DHT22;57623;53.608;10.004;2024-03-22T06:32:46;10.10;99.90
1578;DHT22;57623;53.608;10.004;2024-03-22T06:35:13;10.20;99.90
1578;DHT22;57623;53.608;10.004;2024-03-22T06:37:40;10.20;99.90
1578;DHT22;57623;53.608;10.004;2024-03-22T06:40:07;10.20;99.90
1578;DHT22;57623;53.608;10.004;2024-03-22T06:42:36;10.20;99.90
1578;DHT22;57623;53.608;10.004;2024-03-22T06:45:03;10.20;99.90
1578;DHT22;57623;53.608;10.004;2024-03-22T06:47:30;10.30;99.90
1578;DHT22;57623;53.608;10.004;2024-03-22T06:49:56;10.30;99.90
1578;DHT22;57623;53.608;10.004;2024-03-22T06:52:23;10.30;99.90
1578;DHT22;57623;53.608;10.004;2024-03-22T06:54:49;10.30;99.90
1578;DHT22;57623;53.608;10.004;2024-03-22T06:57:17;10.30;99.90
1578;DHT22;57623;53.608;10.004;2024-03-22T06:59:45;10.30;99.90
1578;DHT22;57623;53.608;10.004;2024-03-22T07:02:12;10.30;99.90
1578;DHT22;57623;53.608;10.004;2024-03-22T07:04:40;10.30;99.90
1578;DHT22;57623;53.608;10.004;2024-03-22T07:07:07;10.40;99.90
1578;DHT22;57623;53.608;10.004;2024-03-22T07:09:33;10.40;99.90
1578;DHT22;57623;53.608;10.004;2024-03-22T07:12:00;10.40;99.90
1578;DHT22;57623;53.608;10.004;2024-03-22T07:14:26;10.50;99.90
1578;DHT22;57623;53.608;10.004;2024-03-22T07:16:54;10.50;99.90
1578;DHT22;57623;53.608;10.004;2024-03-22T07:19:21;10.50;99.90
1578;DHT22;57623;53.608;10.004;2024-03-22T07:21:48;10.50;99.90
1578;DHT22;57623;53.608;10.004;2024-03-22T07:24:14;10.50;99.90
1578;DHT22;57623;53.608;10.004;2024-03-22T07:26:41;10.50;99.90
1578;DHT22;57623;53.608;10.004;2024-03-22T07:29:07;10.60;99.90
1578;DHT22;57623;53.608;10.004;2024-03-22T07:31:34;10.60;99.90
1578;DHT22;57623;53.608;10.004;2024-03-22T07:34:02;10.60;99.90
1578;DHT22;57623;53.608;10.004;2024-03-22T07:36:30;10.60;99.90
1578;DHT22;57623;53.608;10.004;2024-03-22T07:38:56;10.70;99.90
1578;DHT22;57623;53.608;10.004;2024-03-22T07:41:24;10.70;99.90
1578;DHT22;57623;53.608;10.004;2024-03-22T07:43:50;10.80;99.90
1578;DHT22;57623;53.608;10.004;2024-03-22T07:46:17;10.80;99.90
1578;DHT22;57623;53.608;10.004;2024-03-22T07:48:44;10.80;99.90
1578;DHT22;57623;53.608;10.004;2024-03-22T07:51:12;10.80;99.90
1578;DHT22;57623;53.608;10.004;2024-03-22T07:53:38;10.90;99.90
1578;DHT22;57623;53.608;10.004;2024-03-22T07:56:05;10.90;99.90
1578;DHT22;57623;53.608;10.004;2024-03-22T07:58:32;10.90;99.90
1578;DHT22;57623;53.608;10.004;2024-03-22T08:00:59;10.90;99.90
1578;DHT22;57623;53.608;10.004;2024-03-22T08:03:25;10.90;99.90
1578;DHT22;57623;53.608;10.004;2024-03-22T08:05:52;10.80;99.90
1578;DHT22;57623;53.608;10.004;2024-03-22T08:08:20;10.80;99.90
1578;DHT22;57623;53.608;10.004;2024-03-22T08:10:47;10.80;99.90
1578;DHT22;57623;53.608;10.004;2024-03-22T08:13:13;10.80;99.90
1578;DHT22;57623;53.608;10.004;2024-03-22T08:15:40;10.80;99.90
1578;DHT22;57623;53.608;10.004;2024-03-22T08:18:06;10.80;99.90
1578;DHT22;57623;53.608;10.004;2024-03-22T08:20:34;10.80;99.90
1578;DHT22;57623;53.608;10.004;2024-03-22T08:23:00;10.80;99.90
1578;DHT22;57623;53.608;10.004;2024-03-22T08:25:29;10.90;99.90
1578;DHT22;57623;53.608;10.004;2024-03-22T08:27:55;10.80;99.90
1578;DHT22;57623;53.608;10.004;2024-03-22T08:30:24;10.80;99.90
1578;DHT22;57623;53.608;10.004;2024-03-22T08:32:51;10.90;99.90
1578;DHT22;57623;53.608;10.004;2024-03-22T08:35:18;10.80;99.90
1578;DHT22;57623;53.608;10.004;2024-03-22T08:37:44;10.80;99.90
1578;DHT22;57623;53.608;10.004;2024-03-22T08:40:12;10.80;99.90
1578;DHT22;57623;53.608;10.004;2024-03-22T08:42:41;10.80;99.90
1578;DHT22;57623;53.608;10.004;2024-03-22T08:45:09;10.90;99.90
1578;DHT22;57623;53.608;10.004;2024-03-22T08:47:35;10.90;99.90
1578;DHT22;57623;53.608;10.004;2024-03-22T08:50:02;10.90;99.90
1578;DHT22;57623;53.608;10.004;2024-03-22T08:52:28;10.90;99.90
1578;DHT22;57623;53.608;10.004;2024-03-22T08:54:57;10.90;99.90
1578;DHT22;57623;53.608;10.004;2024-03-22T08:57:23;11.00;99.90
1578;DHT22;57623;53.608;10.004;2024-03-22T08:59:52;10.90;99.90
1578;DHT22;57623;53.608;10.004;2024-03-22T09:02:18;11.00;99.90
1578;DHT22;57623;53.608;10.004;2024-03-22T09:04:45;10.90;99.90
1578;DHT22;57623;53.608;10.004;2024-03-22T09:07:12;10.90;99.90
1578;DHT22;57623;53.608;10.004;2024-03-22T09:09:41;10.90;99.90
1578;DHT22;57623;53.608;10.004;2024-03-22T09:12:08;10.90;99.90
1578;DHT22;57623;53.608;10.004;2024-03-22T09:14:35;10.90;99.90
1578;DHT22;57623;53.608;10.004;2024-03-22T09:17:02;10.90;99.90
1578;DHT22;57623;53.608;10.004;2024-03-22T09:19:29;11.00;99.90
1578;DHT22;57623;53.608;10.004;2024-03-22T09:21:55;11.00;99.90
1578;DHT22;57623;53.608;10.004;2024-03-22T09:24:22;11.00;99.90
1578;DHT22;57623;53.608;10.004;2024-03-22T09:26:49;11.00;99.90
1578;DHT22;57623;53.608;10.004;2024-03-22T09:29:16;11.00;99.90
1578;DHT22;57623;53.608;10.004;2024-03-22T09:31:42;11.00;99.90
1578;DHT22;57623;53.608;10.004;2024-03-22T09:34:11;11.00;99.90
1578;DHT22;57623;53.608;10.004;2024-03-22T09:36:38;11.00;99.90
1578;DHT22;57623;53.608;10.004;2024-03-22T09:39:05;11.00;99.90
1578;DHT22;57623;53.608;10.004;2024-03-22T09:41:32;11.00;99.90
1578;DHT22;57623;53.608;10.004;2024-03-22T09:44:00;11.00;99.90
1578;DHT22;57623;53.608;10.004;2024-03-22T09:46:27;11.00;99.90
1578;DHT22;57623;53.608;10.004;2024-03-22T09:48:55;11.00;99.90
1578;DHT22;57623;53.608;10.004;2024-03-22T09:51:24;11.00;99.90
1578;DHT22;57623;53.608;10.004;2024-03-22T09:53:52;11.00;99.90
1578;DHT22;57623;53.608;10.004;2024-03-22T09:56:21;11.00;99.90
1578;DHT22;57623;53.608;10.004;2024-03-22T09:58:48;11.00;99.90
1578;DHT22;57623;53.608;10.004;2024-03-22T10:01:15;11.00;99.90
1578;DHT22;57623;53.608;10.004;2024-03-22T10:03:44;11.00;99.90
1578;DHT22;57623;53.608;10.004;2024-03-22T10:06:10;11.00;99.90
1578;DHT22;57623;53.608;10.004;2024-03-22T10:08:38;11.00;99.90
1578;DHT22;57623;53.608;10.004;2024-03-22T10:11:05;11.00;99.90
1578;DHT22;57623;53.608;10.004;2024-03-22T10:13:32;11.00;99.90
1578;DHT22;57623;53.608;10.004;2024-03-22T10:15:58;11.00;99.90
1578;DHT22;57623;53.608;10.004;2024-03-22T10:18:26;11.00;99.90
1578;DHT22;57623;53.608;10.004;2024-03-22T10:20:59;11.00;99.90
1578;DHT22;57623;53.608;10.004;2024-03-22T10:23:27;11.00;99.90
1578;DHT22;57623;53.608;10.004;2024-03-22T10:25:56;10.90;99.90
1578;DHT22;57623;53.608;10.004;2024-03-22T10:28:23;11.00;99.90
1578;DHT22;57623;53.608;10.004;2024-03-22T10:30:51;11.00;99.90
1578;DHT22;57623;53.608;10.004;2024-03-22T10:33:18;11.00;99.90
1578;DHT22;57623;53.608;10.004;2024-03-22T10:35:45;11.00;99.90
1578;DHT22;57623;53.608;10.004;2024-03-22T10:38:13;11.00;99.90
1578;DHT22;57623;53.608;10.004;2024-03-22T10:40:44;11.00;99.90
1578;DHT22;57623;53.608;10.004;2024-03-22T10:43:13;11.00;99.90
1578;DHT22;57623;53.608;10.004;2024-03-22T10:45:40;11.00;99.90
1578;DHT22;57623;53.608;10.004;2024-03-22T10:48:10;11.00;99.90
1578;DHT22;57623;53.608;10.004;2024-03-22T10:50:39;11.00;99.90
1578;DHT22;57623;53.608;10.004;2024-03-22T10:53:09;11.00;99.90
1578;DHT22;57623;53.608;10.004;2024-03-22T10:55:38;11.00;99.90
1578;DHT22;57623;53.608;10.004;2024-03-22T10:58:15;11.00;99.90
1578;DHT22;57623;53.608;10.004;2024-03-22T11:00:42;11.00;99.90
1578;DHT22;57623;53.608;10.004;2024-03-22T11:03:10;11.00;99.90
1578;DHT22;57623;53.608;10.004;2024-03-22T11:05:45;11.00;99.90
1578;DHT22;57623;53.608;10.004;2024-03-22T11:08:12;11.00;99.90
1578;DHT22;57623;53.608;10.004;2024-03-22T11:10:39;11.00;99.90
1578;DHT22;57623;53.608;10.004;2024-03-22T11:13:07;11.00;99.90
1578;DHT22;57623;53.608;10.004;2024-03-22T11:15:35;11.00;99.90
1578;DHT22;57623;53.608;10.004;2024-03-22T11:18:03;11.00;99.90
1578;DHT22;57623;53.608;10.004;2024-03-22T11:20:29;11.00;99.90
1578;DHT22;57623;53.608;10.004;2024-03-22T11:22:56;10.90;99.90
1578;DHT22;57623;53.608;10.004;2024-03-22T11:25:23;11.00;99.90
1578;DHT22;57623;53.608;10.004;2024-03-22T11:27:50;11.00;99.90
1578;DHT22;57623;53.608;10.004;2024-03-22T11:30:16;11.00;99.90
1578;DHT22;57623;53.608;10.004;2024-03-22T11:32:44;10.90;99.90
1578;DHT22;57623;53.608;10.004;2024-03-22T11:35:12;10.90;99.90
1578;DHT22;57623;53.608;10.004;2024-03-22T11:37:41;10.90;99.90
1578;DHT22;57623;53.608;10.004;2024-03-22T11:40:09;11.00;99.90
1578;DHT22;57623;53.608;10.004;2024-03-22T11:42:37;11.00;99.90
1578;DHT22;57623;53.608;10.004;2024-03-22T11:45:05;11.00;99.90
1578;DHT22;57623;53.608;10.004;2024-03-22T11:47:33;10.90;99.90
1578;DHT22;57623;53.608;10.004;2024-03-22T11:50:01;10.90;99.90
1578;DHT22;57623;53.608;10.004;2024-03-22T11:52:29;11.00;99.90
1578;DHT22;57623;53.608;10.004;2024-03-22T11:54:56;11.00;99.90
1578;DHT22;57623;53.608;10.004;2024-03-22T11:57:23;11.00;99.90
1578;DHT22;57623;53.608;10.004;2024-03-22T11:59:50;11.00;99.90
1578;DHT22;57623;53.608;10.004;2024-03-22T12:02:17;11.00;99.90
1578;DHT22;57623;53.608;10.004;2024-03-22T12:04:45;11.00;99.90
1578;DHT22;57623;53.608;10.004;2024-03-22T12:07:15;11.00;99.90
1578;DHT22;57623;53.608;10.004;2024-03-22T12:09:41;11.00;99.90
1578;DHT22;57623;53.608;10.004;2024-03-22T12:12:10;11.00;99.90
1578;DHT22;57623;53.608;10.004;2024-03-22T12:14:36;11.00;99.90
1578;DHT22;57623;53.608;10.004;2024-03-22T12:17:04;11.00;99.90
1578;DHT22;57623;53.608;10.004;2024-03-22T12:19:31;11.00;99.90
1578;DHT22;57623;53.608;10.004;2024-03-22T12:21:58;11.00;99.90
1578;DHT22;57623;53.608;10.004;2024-03-22T12:24:26;11.00;99.90
1578;DHT22;57623;53.608;10.004;2024-03-22T12:26:53;11.00;99.90
1578;DHT22;57623;53.608;10.004;2024-03-22T12:29:20;11.00;99.90
1578;DHT22;57623;53.608;10.004;2024-03-22T12:31:47;11.00;99.90
1578;DHT22;57623;53.608;10.004;2024-03-22T12:34:14;11.10;99.90
1578;DHT22;57623;53.608;10.004;2024-03-22T12:36:44;11.10;99.90
1578;DHT22;57623;53.608;10.004;2024-03-22T12:39:10;11.10;99.90
1578;DHT22;57623;53.608;10.004;2024-03-22T12:41:39;11.10;99.90
1578;DHT22;57623;53.608;10.004;2024-03-22T12:44:06;11.20;99.90
1578;DHT22;57623;53.608;10.004;2024-03-22T12:46:33;11.20;99.90
1578;DHT22;57623;53.608;10.004;2024-03-22T12:48:59;11.10;99.90
1578;DHT22;57623;53.608;10.004;2024-03-22T12:51:26;11.20;99.90
1578;DHT22;57623;53.608;10.004;2024-03-22T12:53:52;11.10;99.90
1578;DHT22;57623;53.608;10.004;2024-03-22T12:56:20;11.10;99.90
1578;DHT22;57623;53.608;10.004;2024-03-22T12:58:48;11.10;99.90
1578;DHT22;57623;53.608;10.004;2024-03-22T13:01:15;11.00;99.90
1578;DHT22;57623;53.608;10.004;2024-03-22T13:03:41;11.10;99.90
1578;DHT22;57623;53.608;10.004;2024-03-22T13:06:08;11.10;99.90
1578;DHT22;57623;53.608;10.004;2024-03-22T13:08:36;11.00;99.90
1578;DHT22;57623;53.608;10.004;2024-03-22T13:11:04;11.00;99.90
1578;DHT22;57623;53.608;10.004;2024-03-22T13:13:30;11.00;99.90
1578;DHT22;57623;53.608;10.004;2024-03-22T13:15:58;11.00;99.90
1578;DHT22;57623;53.608;10.004;2024-03-22T13:18:24;11.00;99.90
1578;DHT22;57623;53.608;10.004;2024-03-22T13:20:52;11.00;99.90
1578;DHT22;57623;53.608;10.004;2024-03-22T13:23:19;10.90;99.90
1578;DHT22;57623;53.608;10.004;2024-03-22T13:25:46;10.90;99.90
1578;DHT22;57623;53.608;10.004;2024-03-22T13:28:12;10.90;99.90
1578;DHT22;57623;53.608;10.004;2024-03-22T13:30:39;10.90;99.90
1578;DHT22;57623;53.608;10.004;2024-03-22T13:33:07;10.90;99.90
1578;DHT22;57623;53.608;10.004;2024-03-22T13:35:34;10.90;99.90
1578;DHT22;57623;53.608;10.004;2024-03-22T13:38:00;10.80;99.90
1578;DHT22;57623;53.608;10.004;2024-03-22T13:40:27;10.80;99.90
1578;DHT22;57623;53.608;10.004;2024-03-22T13:42:54;10.80;99.90
1578;DHT22;57623;53.608;10.004;2024-03-22T13:45:21;10.80;99.90
1578;DHT22;57623;53.608;10.004;2024-03-22T13:47:47;10.80;99.90
1578;DHT22;57623;53.608;10.004;2024-03-22T13:50:16;10.80;99.90
1578;DHT22;57623;53.608;10.004;2024-03-22T13:52:42;10.70;99.90
1578;DHT22;57623;53.608;10.004;2024-03-22T13:55:09;10.70;99.90
1578;DHT22;57623;53.608;10.004;2024-03-22T13:57:35;10.70;99.90
1578;DHT22;57623;53.608;10.004;2024-03-22T14:00:03;10.70;99.90
1578;DHT22;57623;53.608;10.004;2024-03-22T14:02:32;10.70;99.90
1578;DHT22;57623;53.608;10.004;2024-03-22T14:04:59;10.60;99.90
1578;DHT22;57623;53.608;10.004;2024-03-22T14:07:26;10.60;99.90
1578;DHT22;57623;53.608;10.004;2024-03-22T14:09:53;10.60;99.90
1578;DHT22;57623;53.608;10.004;2024-03-22T14:12:19;10.70;99.90
1578;DHT22;57623;53.608;10.004;2024-03-22T14:14:46;10.70;99.90
1578;DHT22;57623;53.608;10.004;2024-03-22T14:17:13;10.70;99.90
1578;DHT22;57623;53.608;10.004;2024-03-22T14:19:40;10.80;99.90
1578;DHT22;57623;53.608;10.004;2024-03-22T14:22:06;10.70;99.90
1578;DHT22;57623;53.608;10.004;2024-03-22T14:24:34;10.70;99.90
1578;DHT22;57623;53.608;10.004;2024-03-22T14:27:00;10.70;99.90
1578;DHT22;57623;53.608;10.004;2024-03-22T14:29:28;10.60;99.90
1578;DHT22;57623;53.608;10.004;2024-03-22T14:31:54;10.60;99.90
1578;DHT22;57623;53.608;10.004;2024-03-22T14:34:21;10.60;99.90
1578;DHT22;57623;53.608;10.004;2024-03-22T14:36:47;10.60;99.90
1578;DHT22;57623;53.608;10.004;2024-03-22T14:39:14;10.60;99.90
1578;DHT22;57623;53.608;10.004;2024-03-22T14:41:42;10.50;99.90
1578;DHT22;57623;53.608;10.004;2024-03-22T14:44:09;10.40;99.90
1578;DHT22;57623;53.608;10.004;2024-03-22T14:46:35;10.40;99.90
1578;DHT22;57623;53.608;10.004;2024-03-22T14:49:02;10.40;99.90
1578;DHT22;57623;53.608;10.004;2024-03-22T14:51:28;10.40;99.90
1578;DHT22;57623;53.608;10.004;2024-03-22T14:53:55;10.40;99.90
1578;DHT22;57623;53.608;10.004;2024-03-22T14:56:21;10.30;99.90
1578;DHT22;57623;53.608;10.004;2024-03-22T14:58:50;10.30;99.90
1578;DHT22;57623;53.608;10.004;2024-03-22T15:01:16;10.30;99.90
1578;DHT22;57623;53.608;10.004;2024-03-22T15:03:44;10.30;99.90
1578;DHT22;57623;53.608;10.004;2024-03-22T15:06:10;10.20;99.90
1578;DHT22;57623;53.608;10.004;2024-03-22T15:08:37;10.20;99.90
1578;DHT22;57623;53.608;10.004;2024-03-22T15:11:04;10.20;99.90
1578;DHT22;57623;53.608;10.004;2024-03-22T15:13:31;10.20;99.90
1578;DHT22;57623;53.608;10.004;2024-03-22T15:15:58;10.20;99.90
1578;DHT22;57623;53.608;10.004;2024-03-22T15:18:26;10.20;99.90
1578;DHT22;57623;53.608;10.004;2024-03-22T15:20:52;10.20;99.90
1578;DHT22;57623;53.608;10.004;2024-03-22T15:23:20;10.20;99.90
1578;DHT22;57623;53.608;10.004;2024-03-22T15:25:47;10.20;99.90
1578;DHT22;57623;53.608;10.004;2024-03-22T15:28:14;10.20;99.90
1578;DHT22;57623;53.608;10.004;2024-03-22T15:30:41;10.20;99.90
1578;DHT22;57623;53.608;10.004;2024-03-22T15:33:11;10.20;99.90
1578;DHT22;57623;53.608;10.004;2024-03-22T15:35:38;10.20;99.90